Time;durP1;ratioP1;P1;durP2;ratioP2;P2;SDS_P1;SDS_P2;PMS_P1;PMS_P2;Temp;Humidity;BMP_temperature;BMP_pressure;BME280_temperature;BME280_humidity;BME280_pressure;Samples;Min_cycle;Max_cycle;Signal;HPM_P1;HPM_P2
2023/07/18 00:02:11;;;;;;;9.32;2.70;;;14.90;99.90;;;;;;5075684;28;20044;-84
2023/07/18 00:04:38;;;;;;;11.25;5.03;;;14.80;99.90;;;;;;5092577;28;20402;-84
2023/07/18 00:07:05;;;;;;;8.35;2.63;;;14.80;99.90;;;;;;5092643;28;20048;-84
2023/07/18 00:09:31;;;;;;;9.73;4.63;;;14.80;99.90;;;;;;5092869;28;20039;-84
2023/07/18 00:11:57;;;;;;;11.00;5.15;;;14.80;99.90;;;;;;5075459;28;20041;-84
2023/07/18 00:14:23;;;;;;;11.57;4.40;;;14.90;99.90;;;;;;5092502;28;20043;-84
2023/07/18 00:16:48;;;;;;;17.55;3.33;;;14.90;99.90;;;;;;5075737;28;20491;-84
2023/07/18 00:19:14;;;;;;;12.65;4.47;;;14.80;99.90;;;;;;5091874;28;20126;-84
2023/07/18 00:21:40;;;;;;;10.70;4.68;;;14.80;99.90;;;;;;5092136;28;20039;-84
2023/07/18 00:24:07;;;;;;;10.82;4.82;;;14.80;99.90;;;;;;5075553;28;20047;-84
2023/07/18 00:26:33;;;;;;;10.55;4.63;;;14.80;99.90;;;;;;5092083;28;20044;-84
2023/07/18 00:28:58;;;;;;;12.55;5.30;;;14.80;99.90;;;;;;5092229;28;20035;-84
2023/07/18 00:31:24;;;;;;;9.88;3.10;;;14.80;99.90;;;;;;5092036;28;20575;-84
2023/07/18 00:33:49;;;;;;;10.50;4.82;;;14.70;99.90;;;;;;5091762;28;20031;-84
2023/07/18 00:36:15;;;;;;;7.57;2.63;;;14.60;99.90;;;;;;5092008;28;20040;-84
2023/07/18 00:38:40;;;;;;;10.90;4.85;;;14.60;99.90;;;;;;5090636;28;20047;-84
2023/07/18 00:41:08;;;;;;;11.95;5.13;;;14.60;99.90;;;;;;5091955;28;20039;-84
2023/07/18 00:43:34;;;;;;;8.68;2.50;;;14.60;99.90;;;;;;5091137;28;20040;-84
2023/07/18 00:46:01;;;;;;;11.68;5.05;;;14.50;99.90;;;;;;5091911;28;20051;-84
2023/07/18 00:48:32;;;;;;;9.43;2.65;;;14.50;99.90;;;;;;5074884;28;20121;-84
2023/07/18 00:51:00;;;;;;;14.80;4.22;;;14.50;99.90;;;;;;5074799;28;20506;-84
2023/07/18 00:53:25;;;;;;;10.85;5.13;;;14.50;99.90;;;;;;5091358;28;20047;-84
2023/07/18 00:55:53;;;;;;;11.38;3.70;;;14.50;99.90;;;;;;5091560;28;20040;-84
2023/07/18 00:58:19;;;;;;;12.10;3.67;;;14.50;99.90;;;;;;5091522;28;20051;-85
2023/07/18 01:00:45;;;;;;;11.02;4.85;;;14.40;99.90;;;;;;5074473;28;20093;-85
2023/07/18 01:03:11;;;;;;;9.88;3.22;;;14.50;99.90;;;;;;5074160;28;20123;-85
2023/07/18 01:05:39;;;;;;;12.55;5.90;;;14.50;99.90;;;;;;5091437;28;20052;-85
2023/07/18 01:08:04;;;;;;;9.10;3.95;;;14.50;99.90;;;;;;5074345;28;20078;-83
2023/07/18 01:10:30;;;;;;;12.35;5.82;;;14.50;99.90;;;;;;5091702;28;20083;-84
2023/07/18 01:13:00;;;;;;;11.25;6.10;;;14.50;99.90;;;;;;5090881;28;20545;-84
2023/07/18 01:15:33;;;;;;;14.32;6.57;;;14.50;99.90;;;;;;5074392;28;20032;-84
2023/07/18 01:18:02;;;;;;;;;;;14.60;99.90;;;;;;5091523;28;20063;-84
2023/07/18 01:20:28;;;;;;;8.38;3.15;;;14.50;99.90;;;;;;5090533;28;20400;-84
2023/07/18 01:22:56;;;;;;;13.13;6.50;;;14.50;99.90;;;;;;5090630;28;20028;-84
2023/07/18 01:25:22;;;;;;;13.50;6.00;;;14.50;99.90;;;;;;5091124;28;20032;-83
2023/07/18 01:27:54;;;;;;;9.18;3.40;;;14.60;99.90;;;;;;5074278;28;20043;-84
2023/07/18 01:30:21;;;;;;;11.83;3.60;;;14.50;99.90;;;;;;5074092;28;20453;-84
2023/07/18 01:32:50;;;;;;;9.73;3.92;;;14.50;99.90;;;;;;5090077;28;20039;-84
2023/07/18 01:35:23;;;;;;;12.27;6.13;;;14.40;99.90;;;;;;5090952;28;20401;-83
2023/07/18 01:37:49;;;;;;;9.98;3.67;;;14.50;99.90;;;;;;5073937;28;20036;-84
2023/07/18 01:40:19;;;;;;;12.05;6.00;;;14.50;99.90;;;;;;5090268;28;20119;-84
2023/07/18 01:42:46;;;;;;;7.75;3.03;;;14.50;99.90;;;;;;5090363;28;20040;-84
2023/07/18 01:45:12;;;;;;;13.88;6.03;;;14.50;99.90;;;;;;5090610;28;20502;-84
2023/07/18 01:47:39;;;;;;;11.05;6.40;;;14.50;99.90;;;;;;5073714;28;20033;-84
2023/07/18 01:50:06;;;;;;;15.55;6.07;;;14.50;99.90;;;;;;5090833;28;20093;-84
2023/07/18 01:52:33;;;;;;;11.23;3.90;;;14.50;99.90;;;;;;5090198;28;20394;-84
2023/07/18 01:55:00;;;;;;;14.40;6.28;;;14.40;99.90;;;;;;5090818;28;20040;-84
2023/07/18 01:57:30;;;;;;;8.30;2.90;;;14.50;99.90;;;;;;5073647;28;20040;-84
2023/07/18 01:59:59;;;;;;;14.35;6.35;;;14.40;99.90;;;;;;5089906;28;20040;-84
2023/07/18 02:02:26;;;;;;;13.68;6.05;;;14.40;99.90;;;;;;5089904;28;20509;-84
2023/07/18 02:04:52;;;;;;;12.05;4.00;;;14.50;99.90;;;;;;5090367;28;20413;-84
2023/07/18 02:07:18;;;;;;;14.05;6.32;;;14.30;99.90;;;;;;5073530;28;20040;-84
2023/07/18 02:09:43;;;;;;;12.98;5.95;;;14.40;99.90;;;;;;5073315;28;20032;-84
2023/07/18 02:12:09;;;;;;;12.35;4.22;;;14.40;99.90;;;;;;5090090;28;20520;-84
2023/07/18 02:14:36;;;;;;;12.25;5.47;;;14.30;99.90;;;;;;5073083;28;20444;-84
2023/07/18 02:17:05;;;;;;;9.85;2.95;;;14.30;99.90;;;;;;5090550;28;20044;-84
2023/07/18 02:19:31;;;;;;;13.55;5.72;;;14.30;99.90;;;;;;5073387;28;20062;-84
2023/07/18 02:21:56;;;;;;;15.88;6.28;;;14.30;99.90;;;;;;5089715;28;20514;-84
2023/07/18 02:24:22;;;;;;;12.32;5.47;;;14.30;99.90;;;;;;5090368;28;20044;-84
2023/07/18 02:26:47;;;;;;;14.57;6.15;;;14.20;99.90;;;;;;5089777;28;20082;-84
2023/07/18 02:29:15;;;;;;;13.68;5.88;;;14.30;99.90;;;;;;5089908;28;20043;-84
2023/07/18 02:31:42;;;;;;;8.90;3.15;;;14.30;99.90;;;;;;5089745;28;20093;-84
2023/07/18 02:34:07;;;;;;;12.48;5.43;;;14.20;99.90;;;;;;5073326;28;20067;-84
2023/07/18 02:36:33;;;;;;;13.55;5.95;;;14.10;99.90;;;;;;5073216;28;20178;-84
2023/07/18 02:38:59;;;;;;;8.40;2.85;;;14.10;99.90;;;;;;5073182;28;20047;-84
2023/07/18 02:41:25;;;;;;;11.32;5.03;;;14.10;99.90;;;;;;5089862;28;20047;-84
2023/07/18 02:43:50;;;;;;;8.15;2.67;;;14.10;99.90;;;;;;5089701;28;20040;-84
2023/07/18 02:46:16;;;;;;;8.75;3.17;;;14.00;99.90;;;;;;5090256;28;20076;-84
2023/07/18 02:48:42;;;;;;;12.25;5.28;;;13.90;99.90;;;;;;5090032;28;20036;-84
2023/07/18 02:51:07;;;;;;;7.85;3.05;;;14.00;99.90;;;;;;5090103;28;20113;-84
2023/07/18 02:53:33;;;;;;;10.05;3.78;;;14.00;99.90;;;;;;5090438;28;20123;-84
2023/07/18 02:55:58;;;;;;;7.20;2.95;;;13.90;99.90;;;;;;5091000;28;20437;-84
2023/07/18 02:58:24;;;;;;;12.90;3.78;;;13.90;99.90;;;;;;5090755;28;20059;-84
2023/07/18 03:00:53;;;;;;;13.82;6.20;;;13.90;99.90;;;;;;5089308;28;20387;-84
2023/07/18 03:03:18;;;;;;;13.30;6.28;;;14.00;99.90;;;;;;5075404;28;20051;-84
2023/07/18 03:05:44;;;;;;;10.30;3.25;;;14.00;99.90;;;;;;5076862;28;20102;-84
2023/07/18 03:08:10;;;;;;;8.13;3.13;;;14.00;99.90;;;;;;5076690;28;20043;-84
2023/07/18 03:10:37;;;;;;;8.55;3.50;;;13.90;99.90;;;;;;5093608;28;20032;-84
2023/07/18 03:13:03;;;;;;;12.10;6.32;;;13.90;99.90;;;;;;5076462;28;20115;-83
2023/07/18 03:15:29;;;;;;;10.30;3.50;;;14.00;99.90;;;;;;5093545;28;20127;-83
2023/07/18 03:17:54;;;;;;;14.30;5.88;;;13.90;99.90;;;;;;5076750;28;20036;-83
2023/07/18 03:20:20;;;;;;;14.23;6.15;;;14.00;99.90;;;;;;5092581;28;20532;-83
2023/07/18 03:22:47;;;;;;;10.32;2.90;;;14.00;99.90;;;;;;5093164;28;20032;-83
2023/07/18 03:25:13;;;;;;;7.70;2.78;;;14.00;99.90;;;;;;5093200;28;20028;-83
2023/07/18 03:27:38;;;;;;;15.00;6.18;;;13.90;99.90;;;;;;5093146;28;20114;-83
2023/07/18 03:30:10;;;;;;;10.38;3.58;;;14.00;99.90;;;;;;5092851;28;20036;-83
2023/07/18 03:32:38;;;;;;;13.80;6.45;;;14.00;99.90;;;;;;5093342;28;20028;-84
2023/07/18 03:35:04;;;;;;;11.52;3.47;;;14.00;99.90;;;;;;5076353;28;20044;-83
2023/07/18 03:37:30;;;;;;;9.05;3.63;;;13.90;99.90;;;;;;5093168;28;20044;-84
2023/07/18 03:39:55;;;;;;;13.80;6.25;;;13.90;99.90;;;;;;5092886;28;20131;-84
2023/07/18 03:42:21;;;;;;;11.57;3.67;;;13.90;99.90;;;;;;5092280;28;20054;-83
2023/07/18 03:44:47;;;;;;;16.17;5.72;;;13.90;99.90;;;;;;5093059;28;20044;-83
2023/07/18 03:47:12;;;;;;;10.57;4.00;;;14.00;99.90;;;;;;5092934;28;20051;-83
2023/07/18 03:49:38;;;;;;;12.32;5.57;;;13.90;99.90;;;;;;5075956;28;20079;-83
2023/07/18 03:52:05;;;;;;;12.88;5.32;;;14.00;99.90;;;;;;5092615;28;20072;-83
2023/07/18 03:54:34;;;;;;;11.07;3.33;;;14.00;99.90;;;;;;5092896;28;20040;-83
2023/07/18 03:57:00;;;;;;;11.70;3.38;;;14.00;99.90;;;;;;5092407;28;20035;-83
2023/07/18 03:59:26;;;;;;;15.60;5.03;;;13.90;99.90;;;;;;5092224;28;20540;-83
2023/07/18 04:01:52;;;;;;;12.98;3.40;;;14.00;99.90;;;;;;5092183;28;20075;-83
2023/07/18 04:04:18;;;;;;;15.55;5.53;;;14.00;99.90;;;;;;5092685;28;20040;-83
2023/07/18 04:06:43;;;;;;;10.40;3.03;;;14.00;99.90;;;;;;5092494;28;20036;-83
2023/07/18 04:09:10;;;;;;;9.30;2.83;;;14.00;99.90;;;;;;5092909;28;20035;-83
2023/07/18 04:11:37;;;;;;;10.15;3.10;;;14.00;99.90;;;;;;5092790;28;20553;-83
2023/07/18 04:14:02;;;;;;;12.30;3.45;;;13.90;99.90;;;;;;5075346;28;20047;-83
2023/07/18 04:16:28;;;;;;;13.07;3.88;;;13.90;99.90;;;;;;5092870;28;20036;-83
2023/07/18 04:18:54;;;;;;;13.63;5.35;;;14.00;99.90;;;;;;5092538;28;20047;-84
2023/07/18 04:21:19;;;;;;;13.38;5.13;;;14.00;99.90;;;;;;5075037;28;20040;-84
2023/07/18 04:23:45;;;;;;;10.57;2.63;;;14.10;99.90;;;;;;5075041;28;20073;-84
2023/07/18 04:26:12;;;;;;;13.18;5.20;;;14.10;99.90;;;;;;5092070;28;20047;-84
2023/07/18 04:28:38;;;;;;;11.82;2.60;;;14.10;99.90;;;;;;5095603;28;20444;-79
2023/07/18 04:31:04;;;;;;;11.55;5.13;;;14.10;99.90;;;;;;5076764;28;20085;-84
2023/07/18 04:33:35;;;;;;;9.65;2.78;;;14.10;99.90;;;;;;5075652;28;20036;-84
2023/07/18 04:36:01;;;;;;;15.63;5.00;;;14.10;99.90;;;;;;5092235;28;20048;-84
2023/07/18 04:38:27;;;;;;;11.02;4.85;;;14.20;99.90;;;;;;5092951;28;20039;-84
2023/07/18 04:40:52;;;;;;;11.15;3.03;;;14.20;99.90;;;;;;5092189;28;20502;-82
2023/07/18 04:43:19;;;;;;;10.95;3.08;;;14.20;99.90;;;;;;5091670;28;20040;-83
2023/07/18 04:45:46;;;;;;;9.82;3.10;;;14.20;99.90;;;;;;5092183;28;20047;-84
2023/07/18 04:48:17;;;;;;;8.40;2.58;;;14.20;99.90;;;;;;5092099;28;20436;-84
2023/07/18 04:50:44;;;;;;;10.77;4.35;;;14.20;99.90;;;;;;5074865;28;20043;-84
2023/07/18 04:53:10;;;;;;;10.70;2.78;;;14.30;99.90;;;;;;5091358;28;20036;-84
2023/07/18 04:55:37;;;;;;;12.52;3.53;;;14.30;99.90;;;;;;5091727;28;20497;-84
2023/07/18 04:58:03;;;;;;;12.05;4.57;;;14.30;99.90;;;;;;5091829;28;20403;-84
2023/07/18 05:00:31;;;;;;;11.63;4.80;;;14.30;99.90;;;;;;5091257;28;20529;-84
2023/07/18 05:02:58;;;;;;;12.65;4.63;;;14.40;99.90;;;;;;5091095;28;20126;-83
2023/07/18 05:05:27;;;;;;;8.73;2.80;;;14.50;99.90;;;;;;5091445;28;20162;-84
2023/07/18 05:08:00;;;;;;;12.55;2.97;;;14.40;99.90;;;;;;5091243;28;20044;-85
2023/07/18 05:10:26;;;;;;;6.80;2.33;;;14.40;99.90;;;;;;5074125;28;20036;-85
2023/07/18 05:12:54;;;;;;;10.30;4.38;;;14.40;99.90;;;;;;5091316;28;20166;-85
2023/07/18 05:15:19;;;;;;;13.52;4.82;;;14.50;99.90;;;;;;5091189;28;20044;-85
2023/07/18 05:17:46;;;;;;;14.10;4.72;;;14.60;99.90;;;;;;5090948;28;20038;-84
2023/07/18 05:20:12;;;;;;;7.20;2.53;;;14.60;99.90;;;;;;5074055;28;20609;-84
2023/07/18 05:22:43;;;;;;;9.27;2.65;;;14.60;99.90;;;;;;5090736;28;20093;-84
2023/07/18 05:25:11;;;;;;;10.18;4.20;;;14.60;99.90;;;;;;5090472;28;20063;-85
2023/07/18 05:27:37;;;;;;;8.95;2.90;;;14.60;99.90;;;;;;5090224;28;20047;-84
2023/07/18 05:30:06;;;;;;;8.65;2.95;;;14.70;99.90;;;;;;5058887;28;20127;-84
2023/07/18 05:32:33;;;;;;;12.70;5.03;;;14.60;99.90;;;;;;5070226;28;20079;-85
2023/07/18 05:35:02;;;;;;;11.82;4.72;;;14.70;99.90;;;;;;5070812;28;20491;-85
2023/07/18 05:37:29;;;;;;;12.60;5.00;;;14.80;99.90;;;;;;5053664;28;20037;-85
2023/07/18 05:39:55;;;;;;;8.25;2.35;;;14.90;99.90;;;;;;5053585;28;20403;-85
2023/07/18 05:42:21;;;;;;;9.75;3.30;;;14.90;99.90;;;;;;5053245;28;20076;-85
2023/07/18 05:44:47;;;;;;;11.13;4.82;;;15.00;99.90;;;;;;5069852;28;20087;-85
2023/07/18 05:47:13;;;;;;;14.77;5.30;;;15.10;99.90;;;;;;5070180;28;20046;-85
2023/07/18 05:49:39;;;;;;;16.05;5.22;;;15.20;99.90;;;;;;5070356;28;20071;-85
2023/07/18 05:52:05;;;;;;;7.28;2.75;;;15.30;99.90;;;;;;5070255;28;20126;-85
2023/07/18 05:54:39;;;;;;;21.85;3.55;;;15.30;99.90;;;;;;5070205;28;20083;-85
2023/07/18 05:57:05;;;;;;;10.77;4.60;;;15.30;99.90;;;;;;5070733;28;20438;-85
2023/07/18 05:59:31;;;;;;;10.00;2.95;;;15.30;99.90;;;;;;5070234;28;20560;-85
2023/07/18 06:01:56;;;;;;;12.82;2.90;;;15.40;99.90;;;;;;5052422;28;20120;-85
2023/07/18 06:04:22;;;;;;;13.95;5.00;;;15.40;99.90;;;;;;5070352;28;20115;-85
2023/07/18 06:06:48;;;;;;;10.60;4.93;;;15.50;99.90;;;;;;5071551;28;20040;-85
2023/07/18 06:09:14;;;;;;;10.10;3.20;;;15.60;99.90;;;;;;5078732;28;20050;-85
2023/07/18 06:11:39;;;;;;;8.80;3.00;;;15.60;99.90;;;;;;5063818;28;20497;-85
2023/07/18 06:14:05;;;;;;;11.27;4.65;;;15.70;99.90;;;;;;5079554;28;20071;-85
2023/07/18 06:16:31;;;;;;;12.32;4.45;;;15.80;99.90;;;;;;5054247;28;20123;-85
2023/07/18 06:18:57;;;;;;;11.30;4.65;;;15.90;99.90;;;;;;5053575;28;20040;-85
2023/07/18 06:21:26;;;;;;;9.27;3.38;;;15.90;99.90;;;;;;5069822;28;20105;-85
2023/07/18 06:23:56;;;;;;;10.65;4.32;;;15.90;99.90;;;;;;5069453;28;20044;-85
2023/07/18 06:26:22;;;;;;;12.13;4.68;;;15.90;99.90;;;;;;5069888;28;20120;-85
2023/07/18 06:28:48;;;;;;;9.95;3.05;;;16.00;99.90;;;;;;5069832;28;20036;-85
2023/07/18 06:31:14;;;;;;;11.43;2.88;;;16.10;99.90;;;;;;5069950;28;20584;-85
2023/07/18 06:33:40;;;;;;;13.20;3.63;;;16.10;99.90;;;;;;5069658;28;20032;-85
2023/07/18 06:36:06;;;;;;;12.40;4.20;;;16.10;99.90;;;;;;5069465;28;20082;-85
2023/07/18 06:38:32;;;;;;;12.20;4.85;;;16.20;99.90;;;;;;5056092;28;20044;-85
2023/07/18 06:40:58;;;;;;;13.32;4.63;;;16.30;99.90;;;;;;5073994;28;20036;-85
2023/07/18 06:43:24;;;;;;;11.95;4.70;;;16.40;99.90;;;;;;5073318;28;20441;-85
2023/07/18 06:45:50;;;;;;;12.57;4.25;;;16.40;99.90;;;;;;5057123;28;20529;-85
2023/07/18 06:48:16;;;;;;;14.40;4.85;;;16.50;99.90;;;;;;5073950;28;20065;-85
2023/07/18 06:50:51;;;;;;;10.85;4.55;;;16.60;99.90;;;;;;5057101;28;20086;-86
2023/07/18 06:53:19;;;;;;;8.00;2.78;;;16.60;99.90;;;;;;5073207;28;20249;-85
2023/07/18 06:55:46;;;;;;;11.93;3.30;;;16.60;99.90;;;;;;5056866;28;20083;-85
2023/07/18 06:58:12;;;;;;;10.30;2.92;;;16.60;99.90;;;;;;5073357;28;20507;-85
2023/07/18 07:00:39;;;;;;;13.88;4.53;;;16.70;99.90;;;;;;5056639;28;20573;-86
2023/07/18 07:03:04;;;;;;;10.80;4.22;;;16.70;99.90;;;;;;5056151;28;20036;-85
2023/07/18 07:05:30;;;;;;;12.70;4.50;;;16.80;99.90;;;;;;5056815;28;20094;-85
2023/07/18 07:07:56;;;;;;;10.88;4.07;;;16.90;99.90;;;;;;5057130;28;20506;-85
2023/07/18 07:10:21;;;;;;;12.95;5.60;;;17.00;99.90;;;;;;5057096;28;20123;-86
2023/07/18 07:12:47;;;;;;;15.32;4.63;;;17.10;99.90;;;;;;5072910;28;20444;-85
2023/07/18 07:15:13;;;;;;;10.45;3.58;;;17.20;99.90;;;;;;5056835;28;20036;-86
2023/07/18 07:17:39;;;;;;;11.73;4.40;;;17.30;99.90;;;;;;5056701;28;20086;-85
2023/07/18 07:20:06;;;;;;;10.70;4.47;;;17.30;99.90;;;;;;5056461;28;20526;-86
2023/07/18 07:22:32;;;;;;;13.73;3.50;;;17.40;99.90;;;;;;5056058;28;20081;-85
2023/07/18 07:24:58;;;;;;;13.65;5.05;;;17.40;99.90;;;;;;5073803;28;20085;-85
2023/07/18 07:27:23;;;;;;;12.05;4.43;;;17.50;99.90;;;;;;5056564;28;20500;-86
2023/07/18 07:29:49;;;;;;;11.15;4.63;;;17.60;99.90;;;;;;5073166;28;20040;-85
2023/07/18 07:32:15;;;;;;;8.40;3.55;;;17.70;99.90;;;;;;5072367;28;20044;-86
2023/07/18 07:34:42;;;;;;;13.48;5.28;;;17.80;99.90;;;;;;5072805;28;20041;-86
2023/07/18 07:37:08;;;;;;;12.27;4.90;;;17.80;99.90;;;;;;5056458;28;20044;-86
2023/07/18 07:39:34;;;;;;;12.50;4.88;;;17.90;99.90;;;;;;5056248;28;20040;-86
2023/07/18 07:42:00;;;;;;;14.13;5.25;;;18.00;99.90;;;;;;5072073;28;20422;-86
2023/07/18 07:44:27;;;;;;;14.25;6.13;;;18.20;99.90;;;;;;5072673;28;20040;-86
2023/07/18 07:46:54;;;;;;;12.68;5.72;;;18.20;99.90;;;;;;5072857;28;20072;-86
2023/07/18 07:49:20;;;;;;;13.45;4.90;;;18.20;99.90;;;;;;5056032;28;20036;-86
2023/07/18 07:51:46;;;;;;;14.48;5.13;;;18.30;99.90;;;;;;5072203;28;20101;-86
2023/07/18 07:54:12;;;;;;;13.52;5.10;;;18.40;99.90;;;;;;5072505;28;20037;-86
2023/07/18 07:56:37;;;;;;;13.38;4.90;;;18.40;99.90;;;;;;5072530;28;20051;-86
2023/07/18 07:59:03;;;;;;;13.70;5.20;;;18.50;99.90;;;;;;5072965;28;20044;-86
2023/07/18 08:01:28;;;;;;;14.93;5.22;;;18.50;99.90;;;;;;5072110;28;20422;-86
2023/07/18 08:03:54;;;;;;;15.25;5.32;;;18.60;99.90;;;;;;5072020;28;20036;-85
2023/07/18 08:06:19;;;;;;;15.65;5.03;;;18.70;99.90;;;;;;5072703;28;20117;-84
2023/07/18 08:08:45;;;;;;;12.75;4.75;;;18.70;99.90;;;;;;5092665;28;20044;-84
2023/07/18 08:11:11;;;;;;;11.40;4.82;;;18.80;99.90;;;;;;5092857;28;20097;-84
2023/07/18 08:13:36;;;;;;;13.82;5.22;;;18.80;99.90;;;;;;5091664;28;20466;-85
2023/07/18 08:16:02;;;;;;;14.70;4.80;;;18.90;99.90;;;;;;5092796;28;20094;-85
2023/07/18 08:18:27;;;;;;;13.18;4.45;;;19.00;99.90;;;;;;5092442;28;20510;-85
2023/07/18 08:20:53;;;;;;;11.18;4.03;;;19.10;99.90;;;;;;5092407;28;20035;-85
2023/07/18 08:23:18;;;;;;;16.48;3.97;;;19.10;99.90;;;;;;5091377;28;20473;-85
2023/07/18 08:25:44;;;;;;;12.68;4.20;;;19.20;99.90;;;;;;5092347;28;20039;-85
2023/07/18 08:28:10;;;;;;;10.55;3.83;;;19.30;99.90;;;;;;5091974;28;20554;-84
2023/07/18 08:30:39;;;;;;;12.38;4.30;;;19.30;99.90;;;;;;5091743;28;20120;-84
2023/07/18 08:33:04;;;;;;;11.82;3.65;;;19.40;99.90;;;;;;5074562;28;20094;-85
2023/07/18 08:35:30;;;;;;;12.77;4.25;;;19.40;99.90;;;;;;5091525;28;20463;-85
2023/07/18 08:37:56;;;;;;;11.38;3.33;;;19.40;99.90;;;;;;5075062;28;20036;-85
2023/07/18 08:40:22;;;;;;;10.10;2.70;;;19.50;99.90;;;;;;5092206;28;20038;-85
2023/07/18 08:42:50;;;;;;;9.85;2.88;;;19.60;99.90;;;;;;5091087;28;20448;-84
2023/07/18 08:45:16;;;;;;;9.48;2.90;;;19.70;99.90;;;;;;5092017;28;20032;-85
2023/07/18 08:47:43;;;;;;;9.80;2.20;;;19.70;99.90;;;;;;5074745;28;20506;-85
2023/07/18 08:50:12;;;;;;;8.18;2.50;;;19.80;99.90;;;;;;5074651;28;20092;-86
2023/07/18 08:52:38;;;;;;;8.90;2.15;;;19.90;99.90;;;;;;5074225;28;20036;-86
2023/07/18 08:55:05;;;;;;;8.98;2.63;;;19.90;99.90;;;;;;5074882;28;20453;-86
2023/07/18 08:57:31;;;;;;;10.52;3.42;;;19.90;99.90;;;;;;5091824;28;20040;-86
2023/07/18 09:00:04;;;;;;;9.07;2.25;;;20.00;99.90;;;;;;5092195;28;20039;-86
2023/07/18 09:02:30;;;;;;;8.00;2.33;;;20.00;99.90;;;;;;5074268;28;20097;-86
2023/07/18 09:04:55;;;;;;;10.77;2.97;;;20.10;99.90;;;;;;5091182;28;20490;-86
2023/07/18 09:07:26;;;;;;;8.07;1.77;;;20.10;99.90;;;;;;5081975;28;20419;-86
2023/07/18 09:09:53;;;;;;;9.65;2.25;;;20.20;99.90;;;;;;5071559;28;20032;-86
2023/07/18 09:12:19;;;;;;;8.30;1.98;;;20.30;99.90;;;;;;5070582;28;20560;-86
2023/07/18 09:14:44;;;;;;;10.95;2.35;;;20.40;99.90;;;;;;5070254;28;20119;-86
2023/07/18 09:17:10;;;;;;;6.85;2.10;;;20.50;99.90;;;;;;5069698;28;20040;-86
2023/07/18 09:19:44;;;;;;;8.77;2.30;;;20.60;99.90;;;;;;5069685;28;20044;-86
2023/07/18 09:22:14;;;;;;;9.65;2.25;;;20.60;99.90;;;;;;5069534;28;20445;-86
2023/07/18 09:24:41;;;;;;;7.18;1.85;;;20.70;99.90;;;;;;5053777;28;20080;-86
2023/07/18 09:27:27;;;;;;;9.77;2.20;;;20.70;99.90;;;;;;5072567;28;20483;-86
2023/07/18 09:29:54;;;;;;;8.98;2.20;;;20.80;99.90;;;;;;5090464;28;20043;-86
2023/07/18 09:32:21;;;;;;;9.07;2.33;;;20.80;99.90;;;;;;5090963;28;20063;-85
2023/07/18 09:34:59;;;;;;;7.20;1.85;;;20.80;99.90;;;;;;5090947;28;20368;-86
2023/07/18 09:37:25;;;;;;;8.65;1.90;;;20.90;99.90;;;;;;5091809;28;20036;-86
2023/07/18 09:39:51;;;;;;;7.90;1.98;;;21.00;98.40;;;;;;5091027;28;20089;-86
2023/07/18 09:42:18;;;;;;;7.18;1.80;;;20.90;96.30;;;;;;5081324;28;20045;-86
2023/07/18 09:44:49;;;;;;;6.28;1.75;;;21.00;97.10;;;;;;5070640;28;20423;-85
2023/07/18 09:47:16;;;;;;;5.57;1.63;;;21.00;96.50;;;;;;5070457;28;20044;-86
2023/07/18 09:49:45;;;;;;;6.88;1.67;;;21.00;96.10;;;;;;5070669;28;20029;-86
2023/07/18 09:52:11;;;;;;;6.45;1.60;;;21.10;95.80;;;;;;5070096;28;20041;-86
2023/07/18 09:54:39;;;;;;;6.90;1.67;;;21.10;94.10;;;;;;5053531;28;20040;-85
2023/07/18 09:57:12;;;;;;;6.70;1.70;;;21.20;92.60;;;;;;5070252;28;20048;-85
2023/07/18 09:59:39;;;;;;;7.50;1.70;;;21.20;94.20;;;;;;5070679;28;20467;-86
2023/07/18 10:02:10;;;;;;;7.35;1.90;;;21.30;94.90;;;;;;5053336;28;20051;-86
2023/07/18 10:04:36;;;;;;;6.70;1.73;;;21.40;94.90;;;;;;5070464;28;20041;-86
2023/07/18 10:07:03;;;;;;;5.95;1.60;;;21.50;92.20;;;;;;5080776;28;20055;-86
2023/07/18 10:09:31;;;;;;;6.45;1.75;;;21.50;91.10;;;;;;5063971;28;20422;-86
2023/07/18 10:12:03;;;;;;;5.82;1.60;;;21.50;89.80;;;;;;5072803;28;20032;-86
2023/07/18 10:14:48;;;;;;;6.55;1.77;;;21.60;91.50;;;;;;5089211;28;20083;-86
2023/07/18 10:17:33;;;;;;;4.47;1.40;;;21.70;90.50;;;;;;5090778;28;20599;-86
2023/07/18 10:20:04;;;;;;;6.25;1.50;;;21.80;87.80;;;;;;5073031;28;20414;-86
2023/07/18 10:22:33;;;;;;;6.30;1.50;;;21.80;87.90;;;;;;5072627;28;20501;-86
2023/07/18 10:25:00;;;;;;;4.03;1.33;;;21.90;87.80;;;;;;5073401;28;20066;-86
2023/07/18 10:27:43;;;;;;;5.75;1.42;;;22.00;88.10;;;;;;5090203;28;20033;-86
2023/07/18 10:30:11;;;;;;;7.07;1.52;;;22.10;86.90;;;;;;5090425;28;20514;-86
2023/07/18 10:32:38;;;;;;;7.07;1.60;;;22.20;86.00;;;;;;5087845;28;20032;-86
2023/07/18 10:35:13;;;;;;;7.93;1.45;;;22.20;84.80;;;;;;5083188;28;20040;-86
2023/07/18 10:37:50;;;;;;;5.82;1.52;;;22.30;87.80;;;;;;5064636;28;20746;-86
2023/07/18 10:40:39;;;;;;;4.57;1.35;;;22.40;81.00;;;;;;5090279;28;20092;-86
2023/07/18 10:43:09;;;;;;;7.50;1.63;;;22.30;81.70;;;;;;5068671;28;20490;-86
2023/07/18 10:45:40;;;;;;;6.18;1.75;;;22.40;81.50;;;;;;5088324;28;20055;-86
2023/07/18 10:48:13;;;;;;;6.43;1.48;;;22.40;81.90;;;;;;5073379;28;20070;-86
2023/07/18 10:50:39;;;;;;;7.00;1.58;;;22.40;79.50;;;;;;5084050;28;20041;-86
2023/07/18 10:53:04;;;;;;;6.75;1.50;;;22.50;81.30;;;;;;5062032;28;20044;-86
2023/07/18 10:55:31;;;;;;;5.78;1.50;;;22.50;82.80;;;;;;5075141;28;20047;-86
2023/07/18 10:57:56;;;;;;;6.68;1.70;;;22.60;81.20;;;;;;5061289;28;20029;-86
2023/07/18 11:00:24;;;;;;;5.97;1.65;;;22.60;82.00;;;;;;5080849;28;20123;-87
2023/07/18 11:02:50;;;;;;;7.93;1.77;;;22.60;81.80;;;;;;5079271;28;20051;-86
2023/07/18 11:05:15;;;;;;;6.72;1.88;;;22.60;82.40;;;;;;5063335;28;20493;-86
2023/07/18 11:07:43;;;;;;;6.03;1.75;;;22.60;82.20;;;;;;5063111;28;20033;-86
2023/07/18 11:10:10;;;;;;;6.80;1.65;;;22.60;80.80;;;;;;5078676;28;20037;-87
2023/07/18 11:12:36;;;;;;;6.50;1.65;;;22.60;80.00;;;;;;5080694;28;20045;-86
2023/07/18 11:15:10;;;;;;;6.78;1.77;;;22.50;79.50;;;;;;5062919;28;20068;-86
2023/07/18 11:17:38;;;;;;;5.65;1.30;;;22.70;82.00;;;;;;5077964;28;20036;-86
2023/07/18 11:20:05;;;;;;;5.38;1.30;;;22.90;82.20;;;;;;5079944;28;20044;-86
2023/07/18 11:22:31;;;;;;;5.93;1.30;;;23.00;82.10;;;;;;5060861;28;20033;-86
2023/07/18 11:24:57;;;;;;;6.00;1.50;;;22.90;78.40;;;;;;5065943;28;20031;-86
2023/07/18 11:27:24;;;;;;;7.13;1.65;;;23.00;78.30;;;;;;5082546;28;20036;-86
2023/07/18 11:30:08;;;;;;;7.20;1.63;;;23.00;77.70;;;;;;5065369;28;20032;-86
2023/07/18 11:32:45;;;;;;;6.80;1.48;;;23.10;76.70;;;;;;5082234;28;20055;-86
2023/07/18 11:35:12;;;;;;;5.35;1.60;;;23.20;76.80;;;;;;5079218;28;20076;-86
2023/07/18 11:37:41;;;;;;;5.45;1.40;;;23.30;77.50;;;;;;5073238;28;20127;-87
2023/07/18 11:40:07;;;;;;;5.45;1.45;;;23.30;74.00;;;;;;5073256;28;20041;-87
2023/07/18 11:42:47;;;;;;;5.63;1.40;;;23.50;73.70;;;;;;5077287;28;20029;-87
2023/07/18 11:45:16;;;;;;;4.70;1.30;;;23.60;72.70;;;;;;5083162;28;20154;-87
2023/07/18 11:47:43;;;;;;;4.63;1.20;;;23.60;72.10;;;;;;5081546;28;20041;-87
2023/07/18 11:50:10;;;;;;;7.22;1.40;;;23.60;71.90;;;;;;5082915;28;20157;-87
2023/07/18 11:52:36;;;;;;;5.72;1.50;;;23.70;70.80;;;;;;5083473;28;20082;-87
2023/07/18 11:55:02;;;;;;;4.90;1.40;;;23.80;71.60;;;;;;5084378;28;20458;-87
2023/07/18 11:57:29;;;;;;;5.75;1.40;;;23.70;70.60;;;;;;5083181;28;20036;-87
2023/07/18 11:59:54;;;;;;;7.65;1.65;;;23.70;72.20;;;;;;5066780;28;20240;-87
2023/07/18 12:02:20;;;;;;;4.72;1.27;;;23.60;70.20;;;;;;5081289;28;20049;-87
2023/07/18 12:04:46;;;;;;;5.97;1.58;;;23.70;71.30;;;;;;5073246;28;20040;-88
2023/07/18 12:07:11;;;;;;;7.53;1.77;;;23.80;70.90;;;;;;5093462;28;20051;-87
2023/07/18 12:09:37;;;;;;;6.43;1.50;;;23.80;68.70;;;;;;5076371;28;20071;-87
2023/07/18 12:12:03;;;;;;;8.02;1.55;;;23.80;68.70;;;;;;5091082;28;20082;-87
2023/07/18 12:14:31;;;;;;;5.22;1.33;;;23.80;68.60;;;;;;5093057;28;20070;-87
2023/07/18 12:16:57;;;;;;;5.72;1.23;;;23.80;69.00;;;;;;5076394;28;20080;-88
2023/07/18 12:19:22;;;;;;;4.75;1.20;;;23.90;69.50;;;;;;5092899;28;20071;-88
2023/07/18 12:21:50;;;;;;;5.97;1.45;;;24.10;71.10;;;;;;5092594;28;20057;-87
2023/07/18 12:24:17;;;;;;;4.47;1.00;;;24.10;68.10;;;;;;5092075;28;20127;-87
2023/07/18 12:26:44;;;;;;;4.85;1.00;;;24.10;68.20;;;;;;5092694;28;20051;-88
2023/07/18 12:29:13;;;;;;;4.78;1.10;;;24.00;68.20;;;;;;5092280;28;20114;-88
2023/07/18 12:31:44;;;;;;;4.15;1.33;;;24.10;68.50;;;;;;5075684;28;20040;-88
2023/07/18 12:34:09;;;;;;;3.80;1.00;;;24.20;69.90;;;;;;5091998;28;20054;-87
2023/07/18 12:36:35;;;;;;;5.35;1.10;;;24.30;66.50;;;;;;5092313;28;20502;-88
2023/07/18 12:39:00;;;;;;;5.50;0.95;;;24.40;66.20;;;;;;5091327;28;20082;-88
2023/07/18 12:41:26;;;;;;;4.90;1.10;;;24.40;64.40;;;;;;5075331;28;20035;-88